sensor_id;sensor_type;location;lat;lon;timestamp;temperature;humidity
10802;DHT22;5453;50.852;7.102;2023-03-18T00:01:37;11.90;99.90
10802;DHT22;5453;50.852;7.102;2023-03-18T00:04:09;11.90;99.90
10802;DHT22;5453;50.852;7.102;2023-03-18T00:06:43;11.90;99.90
10802;DHT22;5453;50.852;7.102;2023-03-18T00:09:15;11.80;99.90
10802;DHT22;5453;50.852;7.102;2023-03-18T00:11:48;11.80;99.90
10802;DHT22;5453;50.852;7.102;2023-03-18T00:14:20;11.80;99.90
10802;DHT22;5453;50.852;7.102;2023-03-18T00:16:52;11.80;99.90
10802;DHT22;5453;50.852;7.102;2023-03-18T00:19:25;11.80;99.90
10802;DHT22;5453;50.852;7.102;2023-03-18T00:21:58;11.80;99.90
10802;DHT22;5453;50.852;7.102;2023-03-18T00:24:30;11.80;99.90
10802;DHT22;5453;50.852;7.102;2023-03-18T00:27:04;11.80;99.90
10802;DHT22;5453;50.852;7.102;2023-03-18T00:29:36;11.80;99.90
10802;DHT22;5453;50.852;7.102;2023-03-18T00:32:12;11.80;99.90
10802;DHT22;5453;50.852;7.102;2023-03-18T00:34:44;11.80;99.90
10802;DHT22;5453;50.852;7.102;2023-03-18T00:37:18;11.80;99.90
10802;DHT22;5453;50.852;7.102;2023-03-18T00:40:01;11.80;99.90
10802;DHT22;5453;50.852;7.102;2023-03-18T00:42:37;11.80;99.90
10802;DHT22;5453;50.852;7.102;2023-03-18T00:45:17;11.80;99.90
10802;DHT22;5453;50.852;7.102;2023-03-18T00:47:49;11.80;99.90
10802;DHT22;5453;50.852;7.102;2023-03-18T00:50:25;11.90;99.90
10802;DHT22;5453;50.852;7.102;2023-03-18T00:52:58;11.90;99.90
10802;DHT22;5453;50.852;7.102;2023-03-18T00:55:31;11.90;99.90
10802;DHT22;5453;50.852;7.102;2023-03-18T00:58:03;11.90;99.90
10802;DHT22;5453;50.852;7.102;2023-03-18T01:00:36;11.90;99.90
10802;DHT22;5453;50.852;7.102;2023-03-18T01:03:09;11.90;99.90
10802;DHT22;5453;50.852;7.102;2023-03-18T01:05:41;11.90;99.90
10802;DHT22;5453;50.852;7.102;2023-03-18T01:08:16;11.90;99.90
10802;DHT22;5453;50.852;7.102;2023-03-18T01:10:48;11.90;99.90
10802;DHT22;5453;50.852;7.102;2023-03-18T01:13:21;11.90;99.90
10802;DHT22;5453;50.852;7.102;2023-03-18T01:15:55;11.90;99.90
10802;DHT22;5453;50.852;7.102;2023-03-18T01:18:28;11.90;99.90
10802;DHT22;5453;50.852;7.102;2023-03-18T01:21:01;11.90;99.90
10802;DHT22;5453;50.852;7.102;2023-03-18T01:23:39;11.90;99.90
10802;DHT22;5453;50.852;7.102;2023-03-18T01:26:12;11.90;99.90
10802;DHT22;5453;50.852;7.102;2023-03-18T01:28:47;11.90;99.90
10802;DHT22;5453;50.852;7.102;2023-03-18T01:31:20;11.90;99.90
10802;DHT22;5453;50.852;7.102;2023-03-18T01:33:54;11.90;99.90
10802;DHT22;5453;50.852;7.102;2023-03-18T01:36:26;11.90;99.90
10802;DHT22;5453;50.852;7.102;2023-03-18T01:39:12;11.90;99.90
10802;DHT22;5453;50.852;7.102;2023-03-18T01:41:45;11.90;99.90
10802;DHT22;5453;50.852;7.102;2023-03-18T01:44:23;11.80;99.90
10802;DHT22;5453;50.852;7.102;2023-03-18T01:46:57;11.80;99.90
10802;DHT22;5453;50.852;7.102;2023-03-18T01:49:34;11.80;99.90
10802;DHT22;5453;50.852;7.102;2023-03-18T01:52:10;11.80;99.90
10802;DHT22;5453;50.852;7.102;2023-03-18T01:54:53;11.80;99.90
10802;DHT22;5453;50.852;7.102;2023-03-18T01:57:28;11.70;99.90
10802;DHT22;5453;50.852;7.102;2023-03-18T02:00:03;11.70;99.90
10802;DHT22;5453;50.852;7.102;2023-03-18T02:02:49;11.70;99.90
10802;DHT22;5453;50.852;7.102;2023-03-18T02:05:26;11.60;99.90
10802;DHT22;5453;50.852;7.102;2023-03-18T02:07:58;11.60;99.90
10802;DHT22;5453;50.852;7.102;2023-03-18T02:10:31;11.60;99.90
10802;DHT22;5453;50.852;7.102;2023-03-18T02:13:07;11.60;99.90
10802;DHT22;5453;50.852;7.102;2023-03-18T02:15:48;11.60;99.90
10802;DHT22;5453;50.852;7.102;2023-03-18T02:18:27;11.50;99.90
10802;DHT22;5453;50.852;7.102;2023-03-18T02:21:11;11.50;99.90
10802;DHT22;5453;50.852;7.102;2023-03-18T02:24:01;11.60;99.90
10802;DHT22;5453;50.852;7.102;2023-03-18T02:26:46;11.60;99.90
10802;DHT22;5453;50.852;7.102;2023-03-18T02:29:32;11.50;99.90
10802;DHT22;5453;50.852;7.102;2023-03-18T02:32:09;11.60;99.90
10802;DHT22;5453;50.852;7.102;2023-03-18T02:34:43;11.60;99.90
10802;DHT22;5453;50.852;7.102;2023-03-18T02:37:16;11.60;99.90
10802;DHT22;5453;50.852;7.102;2023-03-18T02:39:48;11.60;99.90
10802;DHT22;5453;50.852;7.102;2023-03-18T02:42:27;11.60;99.90
10802;DHT22;5453;50.852;7.102;2023-03-18T02:45:02;11.60;99.90
10802;DHT22;5453;50.852;7.102;2023-03-18T02:47:46;11.60;99.90
10802;DHT22;5453;50.852;7.102;2023-03-18T02:50:19;11.50;99.90
10802;DHT22;5453;50.852;7.102;2023-03-18T02:52:51;11.50;99.90
10802;DHT22;5453;50.852;7.102;2023-03-18T02:55:27;11.50;99.90
10802;DHT22;5453;50.852;7.102;2023-03-18T02:57:59;11.50;99.90
10802;DHT22;5453;50.852;7.102;2023-03-18T03:00:33;11.50;99.90
10802;DHT22;5453;50.852;7.102;2023-03-18T03:03:06;11.50;99.90
10802;DHT22;5453;50.852;7.102;2023-03-18T03:05:38;11.50;99.90
10802;DHT22;5453;50.852;7.102;2023-03-18T03:08:10;11.40;99.90
10802;DHT22;5453;50.852;7.102;2023-03-18T03:10:47;11.30;99.90
10802;DHT22;5453;50.852;7.102;2023-03-18T03:13:21;11.40;99.90
10802;DHT22;5453;50.852;7.102;2023-03-18T03:15:56;11.30;99.90
10802;DHT22;5453;50.852;7.102;2023-03-18T03:18:28;11.30;99.90
10802;DHT22;5453;50.852;7.102;2023-03-18T03:21:00;11.30;99.90
10802;DHT22;5453;50.852;7.102;2023-03-18T03:23:33;11.20;99.90
10802;DHT22;5453;50.852;7.102;2023-03-18T03:26:05;11.20;99.90
10802;DHT22;5453;50.852;7.102;2023-03-18T03:28:38;11.20;99.90
10802;DHT22;5453;50.852;7.102;2023-03-18T03:31:11;11.20;99.90
10802;DHT22;5453;50.852;7.102;2023-03-18T03:33:44;11.10;99.90
10802;DHT22;5453;50.852;7.102;2023-03-18T03:36:16;11.00;99.90
10802;DHT22;5453;50.852;7.102;2023-03-18T03:38:49;11.00;99.90
10802;DHT22;5453;50.852;7.102;2023-03-18T03:41:21;11.00;99.90
10802;DHT22;5453;50.852;7.102;2023-03-18T03:43:53;10.90;99.90
10802;DHT22;5453;50.852;7.102;2023-03-18T03:46:27;10.90;99.90
10802;DHT22;5453;50.852;7.102;2023-03-18T03:48:59;10.80;99.90
10802;DHT22;5453;50.852;7.102;2023-03-18T03:51:31;10.70;99.90
10802;DHT22;5453;50.852;7.102;2023-03-18T03:54:03;10.70;99.90
10802;DHT22;5453;50.852;7.102;2023-03-18T03:56:35;10.70;99.90
10802;DHT22;5453;50.852;7.102;2023-03-18T03:59:08;10.60;99.90
10802;DHT22;5453;50.852;7.102;2023-03-18T04:02:01;10.50;99.90
10802;DHT22;5453;50.852;7.102;2023-03-18T04:04:33;10.50;99.90
10802;DHT22;5453;50.852;7.102;2023-03-18T04:07:05;10.50;99.90
10802;DHT22;5453;50.852;7.102;2023-03-18T04:09:39;10.50;99.90
10802;DHT22;5453;50.852;7.102;2023-03-18T04:12:11;10.50;99.90
10802;DHT22;5453;50.852;7.102;2023-03-18T04:14:44;10.50;99.90
10802;DHT22;5453;50.852;7.102;2023-03-18T04:17:19;10.40;99.90
10802;DHT22;5453;50.852;7.102;2023-03-18T04:19:51;10.40;99.90
10802;DHT22;5453;50.852;7.102;2023-03-18T04:22:23;10.40;99.90
10802;DHT22;5453;50.852;7.102;2023-03-18T04:24:56;10.40;99.90
10802;DHT22;5453;50.852;7.102;2023-03-18T04:27:28;10.40;99.90
10802;DHT22;5453;50.852;7.102;2023-03-18T04:30:06;10.40;99.90
10802;DHT22;5453;50.852;7.102;2023-03-18T04:32:50;10.30;99.90
10802;DHT22;5453;50.852;7.102;2023-03-18T04:35:22;10.20;99.90
10802;DHT22;5453;50.852;7.102;2023-03-18T04:37:55;10.20;99.90
10802;DHT22;5453;50.852;7.102;2023-03-18T04:40:28;10.10;99.90
10802;DHT22;5453;50.852;7.102;2023-03-18T04:43:00;10.10;99.90
10802;DHT22;5453;50.852;7.102;2023-03-18T04:45:33;10.00;99.90
10802;DHT22;5453;50.852;7.102;2023-03-18T04:48:08;10.00;99.90
10802;DHT22;5453;50.852;7.102;2023-03-18T04:50:44;9.90;99.90
10802;DHT22;5453;50.852;7.102;2023-03-18T04:53:22;9.90;99.90
10802;DHT22;5453;50.852;7.102;2023-03-18T04:55:56;9.80;99.90
10802;DHT22;5453;50.852;7.102;2023-03-18T04:58:37;9.80;99.90
10802;DHT22;5453;50.852;7.102;2023-03-18T05:01:15;9.80;99.90
10802;DHT22;5453;50.852;7.102;2023-03-18T05:03:49;9.80;99.90
10802;DHT22;5453;50.852;7.102;2023-03-18T05:06:25;9.80;99.90
10802;DHT22;5453;50.852;7.102;2023-03-18T05:09:03;9.80;99.90
10802;DHT22;5453;50.852;7.102;2023-03-18T05:11:38;9.80;99.90
10802;DHT22;5453;50.852;7.102;2023-03-18T05:14:27;9.80;99.90
10802;DHT22;5453;50.852;7.102;2023-03-18T05:16:59;9.70;99.90
10802;DHT22;5453;50.852;7.102;2023-03-18T05:19:36;9.60;99.90
10802;DHT22;5453;50.852;7.102;2023-03-18T05:22:19;9.60;99.90
10802;DHT22;5453;50.852;7.102;2023-03-18T05:24:57;9.60;99.90
10802;DHT22;5453;50.852;7.102;2023-03-18T05:27:31;9.60;99.90
10802;DHT22;5453;50.852;7.102;2023-03-18T05:30:10;9.60;99.90
10802;DHT22;5453;50.852;7.102;2023-03-18T05:32:47;9.60;99.90
10802;DHT22;5453;50.852;7.102;2023-03-18T05:35:22;9.60;99.90
10802;DHT22;5453;50.852;7.102;2023-03-18T05:37:56;9.70;99.90
10802;DHT22;5453;50.852;7.102;2023-03-18T05:40:28;9.60;99.90
10802;DHT22;5453;50.852;7.102;2023-03-18T05:43:33;9.70;99.90
10802;DHT22;5453;50.852;7.102;2023-03-18T05:46:05;9.60;99.90
10802;DHT22;5453;50.852;7.102;2023-03-18T05:48:57;9.60;99.90
10802;DHT22;5453;50.852;7.102;2023-03-18T05:51:35;9.60;99.90
10802;DHT22;5453;50.852;7.102;2023-03-18T05:54:11;9.70;99.90
10802;DHT22;5453;50.852;7.102;2023-03-18T05:56:46;9.80;99.90
10802;DHT22;5453;50.852;7.102;2023-03-18T05:59:22;9.90;99.90
10802;DHT22;5453;50.852;7.102;2023-03-18T06:01:59;10.00;99.90
10802;DHT22;5453;50.852;7.102;2023-03-18T06:04:32;10.00;99.90
10802;DHT22;5453;50.852;7.102;2023-03-18T06:07:05;10.20;99.90
10802;DHT22;5453;50.852;7.102;2023-03-18T06:09:38;10.20;99.90
10802;DHT22;5453;50.852;7.102;2023-03-18T06:12:10;10.30;99.90
10802;DHT22;5453;50.852;7.102;2023-03-18T06:14:42;10.40;99.90
10802;DHT22;5453;50.852;7.102;2023-03-18T06:17:15;10.50;99.90
10802;DHT22;5453;50.852;7.102;2023-03-18T06:19:48;10.60;99.90
10802;DHT22;5453;50.852;7.102;2023-03-18T06:22:21;10.60;99.90
10802;DHT22;5453;50.852;7.102;2023-03-18T06:24:55;10.80;99.90
10802;DHT22;5453;50.852;7.102;2023-03-18T06:27:27;11.20;99.90
10802;DHT22;5453;50.852;7.102;2023-03-18T06:30:03;11.60;99.90
10802;DHT22;5453;50.852;7.102;2023-03-18T06:32:38;12.30;99.90
10802;DHT22;5453;50.852;7.102;2023-03-18T06:35:11;13.40;99.90
10802;DHT22;5453;50.852;7.102;2023-03-18T06:37:45;14.50;99.90
10802;DHT22;5453;50.852;7.102;2023-03-18T06:40:18;15.70;99.90
10802;DHT22;5453;50.852;7.102;2023-03-18T06:42:52;16.70;99.90
10802;DHT22;5453;50.852;7.102;2023-03-18T06:45:38;17.80;99.90
10802;DHT22;5453;50.852;7.102;2023-03-18T06:48:12;18.80;99.90
10802;DHT22;5453;50.852;7.102;2023-03-18T06:50:46;19.70;98.40
10802;DHT22;5453;50.852;7.102;2023-03-18T06:53:27;20.60;94.80
10802;DHT22;5453;50.852;7.102;2023-03-18T06:56:00;21.30;92.50
10802;DHT22;5453;50.852;7.102;2023-03-18T06:58:40;21.90;90.30
10802;DHT22;5453;50.852;7.102;2023-03-18T07:01:13;22.50;85.50
10802;DHT22;5453;50.852;7.102;2023-03-18T07:03:47;22.90;82.30
10802;DHT22;5453;50.852;7.102;2023-03-18T07:06:21;23.40;79.50
10802;DHT22;5453;50.852;7.102;2023-03-18T07:08:55;23.80;76.10
10802;DHT22;5453;50.852;7.102;2023-03-18T07:11:28;24.20;74.80
10802;DHT22;5453;50.852;7.102;2023-03-18T07:14:03;24.60;72.70
10802;DHT22;5453;50.852;7.102;2023-03-18T07:16:38;24.90;70.70
10802;DHT22;5453;50.852;7.102;2023-03-18T07:19:10;25.10;69.00
10802;DHT22;5453;50.852;7.102;2023-03-18T07:21:43;25.30;67.60
10802;DHT22;5453;50.852;7.102;2023-03-18T07:24:17;25.30;66.50
10802;DHT22;5453;50.852;7.102;2023-03-18T07:26:50;25.30;67.00
10802;DHT22;5453;50.852;7.102;2023-03-18T07:29:23;25.30;66.50
10802;DHT22;5453;50.852;7.102;2023-03-18T07:31:55;25.30;65.90
10802;DHT22;5453;50.852;7.102;2023-03-18T07:34:27;25.40;66.20
10802;DHT22;5453;50.852;7.102;2023-03-18T07:36:59;25.50;65.40
10802;DHT22;5453;50.852;7.102;2023-03-18T07:39:33;25.60;65.30
10802;DHT22;5453;50.852;7.102;2023-03-18T07:42:06;25.80;64.50
10802;DHT22;5453;50.852;7.102;2023-03-18T07:44:39;25.50;63.60
10802;DHT22;5453;50.852;7.102;2023-03-18T07:47:11;25.20;64.40
10802;DHT22;5453;50.852;7.102;2023-03-18T07:49:44;24.90;65.10
10802;DHT22;5453;50.852;7.102;2023-03-18T07:52:17;24.40;65.10
10802;DHT22;5453;50.852;7.102;2023-03-18T07:54:50;24.00;66.60
10802;DHT22;5453;50.852;7.102;2023-03-18T07:57:22;23.80;67.20
10802;DHT22;5453;50.852;7.102;2023-03-18T07:59:54;23.50;67.80
10802;DHT22;5453;50.852;7.102;2023-03-18T08:02:26;23.50;68.20
10802;DHT22;5453;50.852;7.102;2023-03-18T08:04:59;23.50;68.40
10802;DHT22;5453;50.852;7.102;2023-03-18T08:07:31;23.50;68.90
10802;DHT22;5453;50.852;7.102;2023-03-18T08:10:07;23.70;68.40
10802;DHT22;5453;50.852;7.102;2023-03-18T08:12:40;23.90;67.00
10802;DHT22;5453;50.852;7.102;2023-03-18T08:15:12;24.00;68.00
10802;DHT22;5453;50.852;7.102;2023-03-18T08:17:44;23.90;66.80
10802;DHT22;5453;50.852;7.102;2023-03-18T08:20:17;23.80;66.90
10802;DHT22;5453;50.852;7.102;2023-03-18T08:22:49;23.50;67.20
10802;DHT22;5453;50.852;7.102;2023-03-18T08:25:23;22.90;67.80
10802;DHT22;5453;50.852;7.102;2023-03-18T08:27:55;22.50;69.10
10802;DHT22;5453;50.852;7.102;2023-03-18T08:30:27;22.20;70.30
10802;DHT22;5453;50.852;7.102;2023-03-18T08:33:00;22.00;71.20
10802;DHT22;5453;50.852;7.102;2023-03-18T08:35:32;22.00;71.50
10802;DHT22;5453;50.852;7.102;2023-03-18T08:38:06;22.20;70.70
10802;DHT22;5453;50.852;7.102;2023-03-18T08:40:40;22.20;70.90
10802;DHT22;5453;50.852;7.102;2023-03-18T08:43:12;22.20;70.70
10802;DHT22;5453;50.852;7.102;2023-03-18T08:45:45;22.20;71.00
10802;DHT22;5453;50.852;7.102;2023-03-18T08:48:17;22.30;70.40
10802;DHT22;5453;50.852;7.102;2023-03-18T08:50:50;22.30;69.80
10802;DHT22;5453;50.852;7.102;2023-03-18T08:53:23;22.00;70.70
10802;DHT22;5453;50.852;7.102;2023-03-18T08:55:56;21.60;71.50
10802;DHT22;5453;50.852;7.102;2023-03-18T08:58:28;21.30;72.90
10802;DHT22;5453;50.852;7.102;2023-03-18T09:01:01;20.80;73.50
10802;DHT22;5453;50.852;7.102;2023-03-18T09:03:34;20.60;74.70
10802;DHT22;5453;50.852;7.102;2023-03-18T09:06:07;20.40;75.60
10802;DHT22;5453;50.852;7.102;2023-03-18T09:08:39;20.10;76.80
10802;DHT22;5453;50.852;7.102;2023-03-18T09:11:13;19.90;77.90
10802;DHT22;5453;50.852;7.102;2023-03-18T09:13:45;19.70;78.80
10802;DHT22;5453;50.852;7.102;2023-03-18T09:16:17;19.50;79.40
10802;DHT22;5453;50.852;7.102;2023-03-18T09:18:49;19.40;80.30
10802;DHT22;5453;50.852;7.102;2023-03-18T09:21:21;19.30;80.80
10802;DHT22;5453;50.852;7.102;2023-03-18T09:23:54;19.30;81.00
10802;DHT22;5453;50.852;7.102;2023-03-18T09:26:27;19.30;81.80
10802;DHT22;5453;50.852;7.102;2023-03-18T09:28:59;19.20;81.70
10802;DHT22;5453;50.852;7.102;2023-03-18T09:31:31;19.20;82.60
10802;DHT22;5453;50.852;7.102;2023-03-18T09:34:03;19.20;82.60
10802;DHT22;5453;50.852;7.102;2023-03-18T09:36:35;19.10;82.10
10802;DHT22;5453;50.852;7.102;2023-03-18T09:39:07;19.10;82.20
10802;DHT22;5453;50.852;7.102;2023-03-18T09:41:48;19.00;83.20
10802;DHT22;5453;50.852;7.102;2023-03-18T09:44:30;19.00;84.70
10802;DHT22;5453;50.852;7.102;2023-03-18T09:47:17;19.00;84.90
10802;DHT22;5453;50.852;7.102;2023-03-18T09:50:14;19.10;84.50
10802;DHT22;5453;50.852;7.102;2023-03-18T09:52:57;19.00;84.60
10802;DHT22;5453;50.852;7.102;2023-03-18T09:55:39;19.00;84.70
10802;DHT22;5453;50.852;7.102;2023-03-18T09:58:19;19.00;85.30
10802;DHT22;5453;50.852;7.102;2023-03-18T10:00:59;19.00;86.50
10802;DHT22;5453;50.852;7.102;2023-03-18T10:03:36;19.10;86.80
10802;DHT22;5453;50.852;7.102;2023-03-18T10:06:15;19.10;87.20
10802;DHT22;5453;50.852;7.102;2023-03-18T10:08:53;19.20;87.30
10802;DHT22;5453;50.852;7.102;2023-03-18T10:11:32;19.30;86.70
10802;DHT22;5453;50.852;7.102;2023-03-18T10:14:19;19.40;86.00
10802;DHT22;5453;50.852;7.102;2023-03-18T10:17:06;19.40;86.00
10802;DHT22;5453;50.852;7.102;2023-03-18T10:19:46;19.50;85.60
10802;DHT22;5453;50.852;7.102;2023-03-18T10:25:37;19.70;83.90
10802;DHT22;5453;50.852;7.102;2023-03-18T10:28:35;19.90;83.50
10802;DHT22;5453;50.852;7.102;2023-03-18T10:31:28;20.10;82.30
10802;DHT22;5453;50.852;7.102;2023-03-18T10:34:10;20.20;81.40
10802;DHT22;5453;50.852;7.102;2023-03-18T10:36:49;20.20;81.50
10802;DHT22;5453;50.852;7.102;2023-03-18T10:39:24;20.20;81.30
10802;DHT22;5453;50.852;7.102;2023-03-18T10:42:00;20.20;80.70
10802;DHT22;5453;50.852;7.102;2023-03-18T10:44:39;20.20;79.20
10802;DHT22;5453;50.852;7.102;2023-03-18T10:47:16;20.10;79.70
10802;DHT22;5453;50.852;7.102;2023-03-18T10:50:00;20.20;81.50
10802;DHT22;5453;50.852;7.102;2023-03-18T10:52:39;20.30;80.90
10802;DHT22;5453;50.852;7.102;2023-03-18T10:55:22;20.30;81.40
10802;DHT22;5453;50.852;7.102;2023-03-18T10:57:57;20.40;80.80
10802;DHT22;5453;50.852;7.102;2023-03-18T11:00:31;20.40;78.60
10802;DHT22;5453;50.852;7.102;2023-03-18T11:03:07;20.50;78.40
10802;DHT22;5453;50.852;7.102;2023-03-18T11:05:50;20.50;78.60
10802;DHT22;5453;50.852;7.102;2023-03-18T11:08:34;20.60;77.80
10802;DHT22;5453;50.852;7.102;2023-03-18T11:11:23;20.70;76.40
10802;DHT22;5453;50.852;7.102;2023-03-18T11:13:59;20.70;76.00
10802;DHT22;5453;50.852;7.102;2023-03-18T11:16:36;20.80;76.60
10802;DHT22;5453;50.852;7.102;2023-03-18T11:19:29;20.90;77.50
10802;DHT22;5453;50.852;7.102;2023-03-18T11:22:11;21.20;76.60
10802;DHT22;5453;50.852;7.102;2023-03-18T11:25:02;21.30;75.40
10802;DHT22;5453;50.852;7.102;2023-03-18T11:27:38;21.30;74.30
10802;DHT22;5453;50.852;7.102;2023-03-18T11:30:15;21.30;75.00
10802;DHT22;5453;50.852;7.102;2023-03-18T11:32:51;21.30;74.00
10802;DHT22;5453;50.852;7.102;2023-03-18T11:35:32;21.20;73.00
10802;DHT22;5453;50.852;7.102;2023-03-18T11:38:14;21.10;73.90
10802;DHT22;5453;50.852;7.102;2023-03-18T11:40:50;20.90;72.90
10802;DHT22;5453;50.852;7.102;2023-03-18T11:43:22;20.70;74.70
10802;DHT22;5453;50.852;7.102;2023-03-18T11:45:56;20.50;75.50
10802;DHT22;5453;50.852;7.102;2023-03-18T11:48:33;20.40;76.30
10802;DHT22;5453;50.852;7.102;2023-03-18T11:51:30;20.30;77.40
10802;DHT22;5453;50.852;7.102;2023-03-18T11:54:41;20.20;77.90
10802;DHT22;5453;50.852;7.102;2023-03-18T11:57:41;20.10;77.90
10802;DHT22;5453;50.852;7.102;2023-03-18T12:00:28;20.00;78.30
10802;DHT22;5453;50.852;7.102;2023-03-18T12:03:24;20.00;79.20
10802;DHT22;5453;50.852;7.102;2023-03-18T12:06:12;19.90;79.10
10802;DHT22;5453;50.852;7.102;2023-03-18T12:08:57;19.80;78.40
10802;DHT22;5453;50.852;7.102;2023-03-18T12:11:48;19.70;78.30
10802;DHT22;5453;50.852;7.102;2023-03-18T12:14:38;19.70;78.70
10802;DHT22;5453;50.852;7.102;2023-03-18T12:17:21;19.70;78.90
10802;DHT22;5453;50.852;7.102;2023-03-18T12:20:21;19.60;79.30
10802;DHT22;5453;50.852;7.102;2023-03-18T12:23:18;19.60;79.30
10802;DHT22;5453;50.852;7.102;2023-03-18T12:26:02;19.60;79.40
10802;DHT22;5453;50.852;7.102;2023-03-18T12:28:46;19.60;80.80
10802;DHT22;5453;50.852;7.102;2023-03-18T12:34:43;19.60;81.00
10802;DHT22;5453;50.852;7.102;2023-03-18T12:37:28;19.60;81.40
10802;DHT22;5453;50.852;7.102;2023-03-18T12:40:27;19.60;80.10
10802;DHT22;5453;50.852;7.102;2023-03-18T12:43:26;19.60;81.00
10802;DHT22;5453;50.852;7.102;2023-03-18T12:46:09;19.60;80.90
10802;DHT22;5453;50.852;7.102;2023-03-18T12:48:53;19.60;79.90
10802;DHT22;5453;50.852;7.102;2023-03-18T12:51:35;19.60;79.20
10802;DHT22;5453;50.852;7.102;2023-03-18T12:54:19;19.70;80.00
10802;DHT22;5453;50.852;7.102;2023-03-18T12:56:59;19.60;79.80
10802;DHT22;5453;50.852;7.102;2023-03-18T12:59:39;19.60;79.30
10802;DHT22;5453;50.852;7.102;2023-03-18T13:02:36;19.60;79.30
10802;DHT22;5453;50.852;7.102;2023-03-18T13:05:22;19.50;79.70
10802;DHT22;5453;50.852;7.102;2023-03-18T13:14:50;19.20;79.90
10802;DHT22;5453;50.852;7.102;2023-03-18T13:17:30;19.10;80.30
10802;DHT22;5453;50.852;7.102;2023-03-18T13:20:10;19.00;80.60
10802;DHT22;5453;50.852;7.102;2023-03-18T13:23:13;18.90;81.20
10802;DHT22;5453;50.852;7.102;2023-03-18T13:25:57;18.90;82.20
10802;DHT22;5453;50.852;7.102;2023-03-18T13:28:47;18.80;83.80
10802;DHT22;5453;50.852;7.102;2023-03-18T13:31:41;18.70;85.50
10802;DHT22;5453;50.852;7.102;2023-03-18T13:34:34;18.70;87.40
10802;DHT22;5453;50.852;7.102;2023-03-18T13:37:58;18.60;89.00
10802;DHT22;5453;50.852;7.102;2023-03-18T13:40:59;18.50;89.80
10802;DHT22;5453;50.852;7.102;2023-03-18T13:43:45;18.40;90.30
10802;DHT22;5453;50.852;7.102;2023-03-18T13:46:21;18.30;90.90
10802;DHT22;5453;50.852;7.102;2023-03-18T13:48:58;18.20;91.50
10802;DHT22;5453;50.852;7.102;2023-03-18T13:51:49;18.10;91.90
10802;DHT22;5453;50.852;7.102;2023-03-18T13:54:33;18.10;93.20
10802;DHT22;5453;50.852;7.102;2023-03-18T13:57:30;18.00;94.10
10802;DHT22;5453;50.852;7.102;2023-03-18T14:00:22;17.80;94.40
10802;DHT22;5453;50.852;7.102;2023-03-18T14:03:11;17.70;95.20
10802;DHT22;5453;50.852;7.102;2023-03-18T14:05:51;17.60;96.30
10802;DHT22;5453;50.852;7.102;2023-03-18T14:08:51;17.50;96.20
10802;DHT22;5453;50.852;7.102;2023-03-18T14:11:48;17.40;96.80
10802;DHT22;5453;50.852;7.102;2023-03-18T14:14:55;17.30;97.40
10802;DHT22;5453;50.852;7.102;2023-03-18T14:17:44;17.20;98.40
10802;DHT22;5453;50.852;7.102;2023-03-18T14:23:28;17.10;99.90
10802;DHT22;5453;50.852;7.102;2023-03-18T14:28:55;17.10;99.90
10802;DHT22;5453;50.852;7.102;2023-03-18T14:31:53;17.10;99.90
10802;DHT22;5453;50.852;7.102;2023-03-18T14:34:30;17.00;99.90
10802;DHT22;5453;50.852;7.102;2023-03-18T14:37:25;17.00;99.90
10802;DHT22;5453;50.852;7.102;2023-03-18T14:40:04;17.00;99.90
10802;DHT22;5453;50.852;7.102;2023-03-18T14:42:43;17.00;99.90
10802;DHT22;5453;50.852;7.102;2023-03-18T14:45:25;17.00;99.90
10802;DHT22;5453;50.852;7.102;2023-03-18T14:48:00;17.00;99.90
10802;DHT22;5453;50.852;7.102;2023-03-18T14:50:38;17.00;99.90
10802;DHT22;5453;50.852;7.102;2023-03-18T14:53:17;17.00;99.90
10802;DHT22;5453;50.852;7.102;2023-03-18T14:55:53;17.00;99.90
10802;DHT22;5453;50.852;7.102;2023-03-18T14:58:26;17.00;99.90
10802;DHT22;5453;50.852;7.102;2023-03-18T15:01:04;17.00;99.90
10802;DHT22;5453;50.852;7.102;2023-03-18T15:03:40;17.10;99.90
10802;DHT22;5453;50.852;7.102;2023-03-18T15:06:18;17.20;99.90
10802;DHT22;5453;50.852;7.102;2023-03-18T15:09:07;17.20;99.90
10802;DHT22;5453;50.852;7.102;2023-03-18T15:11:43;17.20;99.90
10802;DHT22;5453;50.852;7.102;2023-03-18T15:14:18;17.30;99.90
10802;DHT22;5453;50.852;7.102;2023-03-18T15:16:55;17.30;99.90
10802;DHT22;5453;50.852;7.102;2023-03-18T15:19:28;17.40;99.90
10802;DHT22;5453;50.852;7.102;2023-03-18T15:22:02;17.40;99.90
10802;DHT22;5453;50.852;7.102;2023-03-18T15:24:35;17.50;99.90
10802;DHT22;5453;50.852;7.102;2023-03-18T15:27:13;17.50;99.90
10802;DHT22;5453;50.852;7.102;2023-03-18T15:29:50;17.60;99.90
10802;DHT22;5453;50.852;7.102;2023-03-18T15:32:25;17.60;99.90
10802;DHT22;5453;50.852;7.102;2023-03-18T15:35:10;17.60;99.90
10802;DHT22;5453;50.852;7.102;2023-03-18T15:37:46;17.60;99.90
10802;DHT22;5453;50.852;7.102;2023-03-18T15:40:44;17.60;99.90
10802;DHT22;5453;50.852;7.102;2023-03-18T15:43:28;17.60;99.90
10802;DHT22;5453;50.852;7.102;2023-03-18T15:46:05;17.60;99.90
10802;DHT22;5453;50.852;7.102;2023-03-18T15:48:40;17.60;99.90
10802;DHT22;5453;50.852;7.102;2023-03-18T15:51:26;17.60;99.00
10802;DHT22;5453;50.852;7.102;2023-03-18T15:54:03;17.60;96.80
10802;DHT22;5453;50.852;7.102;2023-03-18T15:56:45;17.60;96.80
10802;DHT22;5453;50.852;7.102;2023-03-18T15:59:23;17.50;97.00
10802;DHT22;5453;50.852;7.102;2023-03-18T16:01:58;17.50;96.50
10802;DHT22;5453;50.852;7.102;2023-03-18T16:04:32;17.50;95.80
10802;DHT22;5453;50.852;7.102;2023-03-18T16:07:13;17.50;96.10
10802;DHT22;5453;50.852;7.102;2023-03-18T16:09:48;17.50;96.30
10802;DHT22;5453;50.852;7.102;2023-03-18T16:12:22;17.40;96.30
10802;DHT22;5453;50.852;7.102;2023-03-18T16:15:00;17.40;96.30
10802;DHT22;5453;50.852;7.102;2023-03-18T16:17:33;17.40;96.50
10802;DHT22;5453;50.852;7.102;2023-03-18T16:20:13;17.40;96.70
10802;DHT22;5453;50.852;7.102;2023-03-18T16:22:48;17.30;96.70
10802;DHT22;5453;50.852;7.102;2023-03-18T16:25:20;17.30;96.70
10802;DHT22;5453;50.852;7.102;2023-03-18T16:27:55;17.30;96.50
10802;DHT22;5453;50.852;7.102;2023-03-18T16:30:29;17.30;96.60
10802;DHT22;5453;50.852;7.102;2023-03-18T16:33:07;17.20;96.20
10802;DHT22;5453;50.852;7.102;2023-03-18T16:35:40;17.20;96.30
10802;DHT22;5453;50.852;7.102;2023-03-18T16:38:15;17.10;96.20
10802;DHT22;5453;50.852;7.102;2023-03-18T16:40:47;17.00;96.30
10802;DHT22;5453;50.852;7.102;2023-03-18T16:43:21;17.00;96.20
10802;DHT22;5453;50.852;7.102;2023-03-18T16:45:59;16.90;95.70
10802;DHT22;5453;50.852;7.102;2023-03-18T16:48:33;16.90;95.50
10802;DHT22;5453;50.852;7.102;2023-03-18T16:51:05;16.90;95.40
10802;DHT22;5453;50.852;7.102;2023-03-18T16:53:37;16.80;94.80
10802;DHT22;5453;50.852;7.102;2023-03-18T16:56:14;16.80;94.80
10802;DHT22;5453;50.852;7.102;2023-03-18T16:58:47;16.80;94.90
10802;DHT22;5453;50.852;7.102;2023-03-18T17:01:21;16.80;94.90
10802;DHT22;5453;50.852;7.102;2023-03-18T17:03:54;16.70;95.00
10802;DHT22;5453;50.852;7.102;2023-03-18T17:06:26;16.70;94.90
10802;DHT22;5453;50.852;7.102;2023-03-18T17:08:58;16.70;94.90
10802;DHT22;5453;50.852;7.102;2023-03-18T17:11:31;16.70;94.80
10802;DHT22;5453;50.852;7.102;2023-03-18T17:14:03;16.70;94.80